createdAt,value
2022-09-11T00:00:01.619Z,17.11
2022-09-11T00:01:01.602Z,17.08
2022-09-11T00:02:01.660Z,17.04
2022-09-11T00:03:01.644Z,17.04
2022-09-11T00:04:01.547Z,17.03
2022-09-11T00:05:01.522Z,16.98
2022-09-11T00:06:01.501Z,17.08
2022-09-11T00:07:01.480Z,17.06
2022-09-11T00:08:01.457Z,16.99
2022-09-11T00:09:01.713Z,17.00
2022-09-11T00:10:01.421Z,17.04
2022-09-11T00:11:01.407Z,17.04
2022-09-11T00:12:01.376Z,17.06
2022-09-11T00:13:01.358Z,17.00
2022-09-11T00:14:01.337Z,17.03
2022-09-11T00:15:01.324Z,17.00
2022-09-11T00:16:01.366Z,17.11
2022-09-11T00:17:01.299Z,17.07
2022-09-11T00:18:01.258Z,17.06
2022-09-11T00:19:01.236Z,17.11
2022-09-11T00:20:01.216Z,17.11
2022-09-11T00:21:01.211Z,17.14
2022-09-11T00:22:01.183Z,17.14
2022-09-11T00:23:01.160Z,17.14
2022-09-11T00:24:01.144Z,17.17
2022-09-11T00:25:01.134Z,17.17
2022-09-11T00:26:01.100Z,17.17
2022-09-11T00:27:01.083Z,17.10
2022-09-11T00:28:01.060Z,17.20
2022-09-11T00:29:01.050Z,17.17
2022-09-11T00:30:01.023Z,17.20
2022-09-11T00:31:01.027Z,17.23
2022-09-11T00:32:00.982Z,17.18
2022-09-11T00:33:00.959Z,17.15
2022-09-11T00:34:00.947Z,17.17
2022-09-11T00:35:00.922Z,17.14
2022-09-11T00:36:00.896Z,17.10
2022-09-11T00:37:00.882Z,17.15
2022-09-11T00:38:00.861Z,17.17
2022-09-11T00:39:00.844Z,17.15
2022-09-11T00:40:00.903Z,17.14
2022-09-11T00:41:00.800Z,17.17
2022-09-11T00:42:00.776Z,17.26
2022-09-11T00:43:00.757Z,17.13
2022-09-11T00:44:00.756Z,17.14
2022-09-11T00:45:00.728Z,17.17
2022-09-11T00:46:00.747Z,17.13
2022-09-11T00:47:00.678Z,17.22
2022-09-11T00:48:00.665Z,17.15
2022-09-11T00:49:00.684Z,17.11
2022-09-11T00:50:00.622Z,17.15
2022-09-11T00:51:00.612Z,17.17
2022-09-11T00:52:00.588Z,17.18
2022-09-11T00:53:00.567Z,17.13
2022-09-11T00:54:00.548Z,17.14
2022-09-11T00:55:00.520Z,17.22
2022-09-11T00:56:00.510Z,17.17
2022-09-11T00:57:00.482Z,17.20
2022-09-11T00:58:00.461Z,17.17
2022-09-11T00:59:00.443Z,17.11
2022-09-11T01:00:00.423Z,17.17
2022-09-11T01:01:00.488Z,17.17
2022-09-11T01:02:00.427Z,17.13
2022-09-11T01:03:00.363Z,17.13
2022-09-11T01:04:00.341Z,17.08
2022-09-11T01:05:00.325Z,17.14
2022-09-11T01:06:00.307Z,17.08
2022-09-11T01:07:00.292Z,17.11
2022-09-11T01:08:00.318Z,17.06
2022-09-11T01:09:00.248Z,17.06
2022-09-11T01:10:00.234Z,17.07
2022-09-11T01:11:00.206Z,17.00
2022-09-11T01:12:00.181Z,17.04
2022-09-11T01:13:00.163Z,17.03
2022-09-11T01:14:00.139Z,17.03
2022-09-11T01:15:00.126Z,17.03
2022-09-11T01:16:00.178Z,17.10
2022-09-11T01:17:00.081Z,17.06
2022-09-11T01:18:00.065Z,17.04
2022-09-11T01:19:00.048Z,17.07
2022-09-11T01:20:00.025Z,17.06
2022-09-11T01:21:00.003Z,17.11
2022-09-11T01:21:59.978Z,17.10
2022-09-11T01:22:59.966Z,17.13
2022-09-11T01:23:59.938Z,17.06
2022-09-11T01:24:59.935Z,17.10
2022-09-11T01:25:59.926Z,17.04
2022-09-11T01:26:59.884Z,17.11
2022-09-11T01:27:59.861Z,17.14
2022-09-11T01:28:59.844Z,17.13
2022-09-11T01:29:59.848Z,17.10
2022-09-11T01:30:59.809Z,17.22
2022-09-11T01:31:59.778Z,17.17
2022-09-11T01:32:59.771Z,17.15
2022-09-11T01:33:59.748Z,17.20
2022-09-11T01:34:59.734Z,17.14
2022-09-11T01:35:59.708Z,17.18
2022-09-11T01:36:59.684Z,17.15
2022-09-11T01:37:59.662Z,17.26
2022-09-11T01:38:59.644Z,17.26
2022-09-11T01:39:59.647Z,17.26
2022-09-11T01:40:59.600Z,17.32
2022-09-11T01:41:59.587Z,17.17
2022-09-11T01:42:59.567Z,17.17
2022-09-11T01:43:59.540Z,17.17
2022-09-11T01:44:59.522Z,17.26
2022-09-11T01:45:59.537Z,17.15
2022-09-11T01:46:59.484Z,17.14
2022-09-11T01:47:59.464Z,17.15
2022-09-11T01:48:59.452Z,17.20
2022-09-11T01:49:59.430Z,17.22
2022-09-11T01:50:59.411Z,17.17
2022-09-11T01:51:59.381Z,17.11
2022-09-11T01:52:59.451Z,17.14
2022-09-11T01:53:59.388Z,17.15
2022-09-11T01:54:59.362Z,17.13
2022-09-11T01:55:59.304Z,17.20
2022-09-11T01:56:59.286Z,17.17
2022-09-11T01:57:59.268Z,17.14
2022-09-11T01:58:59.244Z,17.17
2022-09-11T01:59:59.233Z,17.17
2022-09-11T02:00:59.243Z,17.17
2022-09-11T02:01:59.208Z,17.14
2022-09-11T02:02:59.186Z,17.10
2022-09-11T02:03:59.153Z,17.13
2022-09-11T02:04:59.158Z,17.13
2022-09-11T02:05:59.125Z,17.13
2022-09-11T02:06:59.094Z,17.10
2022-09-11T02:07:59.063Z,17.11
2022-09-11T02:08:59.148Z,17.10
2022-09-11T02:09:59.038Z,17.11
2022-09-11T02:10:59.005Z,17.13
2022-09-11T02:11:58.985Z,17.03
2022-09-11T02:12:58.967Z,17.03
2022-09-11T02:13:58.947Z,17.03
2022-09-11T02:14:58.947Z,16.99
2022-09-11T02:15:58.941Z,16.99
2022-09-11T02:16:58.887Z,17.03
2022-09-11T02:17:58.868Z,16.99
2022-09-11T02:18:58.850Z,16.99
2022-09-11T02:19:58.826Z,17.07
2022-09-11T02:20:58.813Z,17.04
2022-09-11T02:21:58.788Z,17.03
2022-09-11T02:22:58.769Z,17.03
2022-09-11T02:23:58.752Z,16.95
2022-09-11T02:24:58.738Z,16.96
2022-09-11T02:25:58.715Z,16.98
2022-09-11T02:26:58.691Z,16.86
2022-09-11T02:27:58.673Z,16.85
2022-09-11T02:28:58.680Z,16.86
2022-09-11T02:29:58.629Z,16.92
2022-09-11T02:30:58.616Z,16.85
2022-09-11T02:31:58.588Z,16.90
2022-09-11T02:32:58.571Z,16.88
2022-09-11T02:33:58.555Z,16.75
2022-09-11T02:34:58.539Z,16.81
2022-09-11T02:35:58.511Z,16.68
2022-09-11T02:36:58.489Z,16.67
2022-09-11T02:37:58.475Z,16.63
2022-09-11T02:38:58.446Z,16.63
2022-09-11T02:39:58.468Z,16.56
2022-09-11T02:40:58.409Z,16.55
2022-09-11T02:41:58.400Z,16.52
2022-09-11T02:42:58.513Z,16.58
2022-09-11T02:43:58.354Z,16.55
2022-09-11T02:44:58.329Z,16.44
2022-09-11T02:45:58.377Z,16.53
2022-09-11T02:46:58.288Z,16.45
2022-09-11T02:47:58.275Z,16.49
2022-09-11T02:48:58.250Z,16.56
2022-09-11T02:49:58.236Z,16.56
2022-09-11T02:50:58.232Z,16.55
2022-09-11T02:51:58.201Z,16.49
2022-09-11T02:52:58.171Z,16.50
2022-09-11T02:53:58.175Z,16.56
2022-09-11T02:54:58.156Z,16.52
2022-09-11T02:55:58.111Z,16.50
2022-09-11T02:56:58.094Z,16.49
2022-09-11T02:57:58.079Z,16.50
2022-09-11T02:58:58.055Z,16.52
2022-09-11T02:59:58.027Z,16.56
2022-09-11T03:00:58.026Z,16.58
2022-09-11T03:01:58.048Z,16.56
2022-09-11T03:02:57.977Z,16.58
2022-09-11T03:03:57.960Z,16.62
2022-09-11T03:04:57.963Z,16.65
2022-09-11T03:05:57.910Z,16.67
2022-09-11T03:06:57.895Z,16.71
2022-09-11T03:07:57.867Z,16.73
2022-09-11T03:08:57.854Z,16.75
2022-09-11T03:09:57.826Z,16.68
2022-09-11T03:10:57.809Z,16.78
2022-09-11T03:11:57.790Z,16.73
2022-09-11T03:12:57.771Z,16.73
2022-09-11T03:13:57.748Z,16.77
2022-09-11T03:14:57.745Z,16.74
2022-09-11T03:15:57.735Z,16.71
2022-09-11T03:16:57.703Z,16.73
2022-09-11T03:17:57.671Z,16.75
2022-09-11T03:18:57.643Z,16.73
2022-09-11T03:19:57.632Z,16.77
2022-09-11T03:20:57.639Z,16.70
2022-09-11T03:21:57.600Z,16.70
2022-09-11T03:22:57.683Z,16.70
2022-09-11T03:23:57.554Z,16.71
2022-09-11T03:24:57.535Z,16.63
2022-09-11T03:25:57.507Z,16.62
2022-09-11T03:26:57.483Z,16.60
2022-09-11T03:27:57.485Z,16.62
2022-09-11T03:28:57.445Z,16.52
2022-09-11T03:29:57.427Z,16.62
2022-09-11T03:30:57.410Z,16.56
2022-09-11T03:31:57.436Z,16.56
2022-09-11T03:32:57.408Z,16.56
2022-09-11T03:33:57.346Z,16.55
2022-09-11T03:34:57.325Z,16.58
2022-09-11T03:35:57.309Z,16.53
2022-09-11T03:36:57.284Z,16.58
2022-09-11T03:37:57.271Z,16.53
2022-09-11T03:38:57.251Z,16.53
2022-09-11T03:39:57.254Z,16.50
2022-09-11T03:40:57.217Z,16.52
2022-09-11T03:41:57.214Z,16.52
2022-09-11T03:42:57.163Z,16.59
2022-09-11T03:43:57.141Z,16.58
2022-09-11T03:44:57.131Z,16.58
2022-09-11T03:45:57.181Z,16.56
2022-09-11T03:46:57.092Z,16.55
2022-09-11T03:47:57.066Z,16.58
2022-09-11T03:48:57.050Z,16.60
2022-09-11T03:49:57.027Z,16.68
2022-09-11T03:50:57.005Z,16.63
2022-09-11T03:51:57.031Z,16.70
2022-09-11T03:52:56.961Z,16.70
2022-09-11T03:53:56.973Z,16.68
2022-09-11T03:54:56.942Z,16.71
2022-09-11T03:55:56.904Z,16.75
2022-09-11T03:56:56.884Z,16.77
2022-09-11T03:57:56.869Z,16.77
2022-09-11T03:58:56.876Z,16.71
2022-09-11T03:59:56.844Z,16.74
2022-09-11T04:00:56.823Z,16.80
2022-09-11T04:01:56.813Z,16.86
2022-09-11T04:02:56.763Z,16.81
2022-09-11T04:03:56.745Z,16.86
2022-09-11T04:04:56.721Z,16.81
2022-09-11T04:05:56.708Z,16.85
2022-09-11T04:06:56.685Z,16.83
2022-09-11T04:07:56.679Z,16.85
2022-09-11T04:08:56.642Z,16.90
2022-09-11T04:09:56.630Z,16.88
2022-09-11T04:10:56.600Z,16.88
2022-09-11T04:11:56.587Z,16.88
2022-09-11T04:12:56.567Z,16.86
2022-09-11T04:13:56.547Z,16.90
2022-09-11T04:14:56.538Z,16.88
2022-09-11T04:15:56.511Z,16.92
2022-09-11T04:16:56.487Z,16.95
2022-09-11T04:17:56.472Z,16.89
2022-09-11T04:18:56.454Z,16.89
2022-09-11T04:19:56.443Z,16.95
2022-09-11T04:20:56.408Z,16.88
2022-09-11T04:21:56.391Z,16.93
2022-09-11T04:22:56.364Z,16.92
2022-09-11T04:23:56.356Z,16.90
2022-09-11T04:24:56.330Z,16.88
2022-09-11T04:25:56.304Z,16.81
2022-09-11T04:27:00.467Z,16.89
2022-09-11T04:27:56.279Z,16.81
2022-09-11T04:28:56.269Z,16.86
2022-09-11T04:29:56.227Z,16.86
2022-09-11T04:30:56.215Z,16.86
2022-09-11T04:31:56.280Z,16.89
2022-09-11T04:32:56.163Z,16.85
2022-09-11T04:33:58.025Z,16.75
2022-09-11T04:34:56.133Z,16.78
2022-09-11T04:35:56.107Z,16.78
2022-09-11T04:36:56.091Z,16.70
2022-09-11T04:37:56.077Z,16.74
2022-09-11T04:38:56.122Z,16.70
2022-09-11T04:39:56.057Z,16.68
2022-09-11T04:40:56.003Z,16.70
2022-09-11T04:41:56.004Z,16.70
2022-09-11T04:42:55.967Z,16.65
2022-09-11T04:43:55.980Z,16.68
2022-09-11T04:44:55.934Z,16.70
2022-09-11T04:45:55.986Z,16.65
2022-09-11T04:46:55.884Z,16.63
2022-09-11T04:47:55.871Z,16.68
2022-09-11T04:48:55.850Z,16.58
2022-09-11T04:49:55.829Z,16.65
2022-09-11T04:50:55.811Z,16.60
2022-09-11T04:51:55.788Z,16.63
2022-09-11T04:52:55.772Z,16.56
2022-09-11T04:53:55.777Z,16.62
2022-09-11T04:54:55.727Z,16.60
2022-09-11T04:55:55.708Z,16.63
2022-09-11T04:56:55.696Z,16.60
2022-09-11T04:57:55.664Z,16.56
2022-09-11T04:58:55.643Z,16.59
2022-09-11T04:59:55.643Z,16.59
2022-09-11T05:00:55.649Z,16.60
2022-09-11T05:01:55.669Z,16.48
2022-09-11T05:02:55.566Z,16.48
2022-09-11T05:03:55.550Z,16.50
2022-09-11T05:04:55.527Z,16.45
2022-09-11T05:05:55.508Z,16.42
2022-09-11T05:06:55.492Z,16.42
2022-09-11T05:07:55.474Z,16.44
2022-09-11T05:08:55.451Z,16.42
2022-09-11T05:09:55.475Z,16.31
2022-09-11T05:10:55.412Z,16.31
2022-09-11T05:11:55.385Z,16.34
2022-09-11T05:12:55.367Z,16.35
2022-09-11T05:13:55.342Z,16.34
2022-09-11T05:14:55.324Z,16.25
2022-09-11T05:15:55.323Z,16.33
2022-09-11T05:16:55.287Z,16.35
2022-09-11T05:17:55.286Z,16.37
2022-09-11T05:18:55.260Z,16.31
2022-09-11T05:19:55.230Z,16.27
2022-09-11T05:20:55.213Z,16.41
2022-09-11T05:21:55.189Z,16.38
2022-09-11T05:22:55.170Z,16.40
2022-09-11T05:23:55.149Z,16.31
2022-09-11T05:24:55.178Z,16.42
2022-09-11T05:25:55.118Z,16.31
2022-09-11T05:26:55.099Z,16.35
2022-09-11T05:27:55.097Z,16.33
2022-09-11T05:28:55.076Z,16.27
2022-09-11T05:29:55.185Z,16.27
2022-09-11T05:30:55.063Z,16.27
2022-09-11T05:31:55.064Z,16.35
2022-09-11T05:32:54.979Z,16.33
2022-09-11T05:33:54.964Z,16.33
2022-09-11T05:34:54.933Z,16.34
2022-09-11T05:35:54.913Z,16.33
2022-09-11T05:36:54.900Z,16.30
2022-09-11T05:37:54.869Z,16.34
2022-09-11T05:38:54.852Z,16.42
2022-09-11T05:39:54.893Z,16.40
2022-09-11T05:40:54.810Z,16.42
2022-09-11T05:41:54.796Z,16.40
2022-09-11T05:42:54.801Z,16.41
2022-09-11T05:43:54.758Z,16.37
2022-09-11T05:44:54.742Z,16.40
2022-09-11T05:45:54.737Z,16.49
2022-09-11T05:46:54.691Z,16.42
2022-09-11T05:47:56.014Z,16.44
2022-09-11T05:48:54.656Z,16.48
2022-09-11T05:49:54.640Z,16.48
2022-09-11T05:50:54.612Z,16.55
2022-09-11T05:51:54.591Z,16.48
2022-09-11T05:52:54.580Z,16.59
2022-09-11T05:53:54.585Z,16.58
2022-09-11T05:54:54.535Z,16.62
2022-09-11T05:55:54.512Z,16.60
2022-09-11T05:56:54.498Z,16.60
2022-09-11T05:57:54.477Z,16.62
2022-09-11T05:58:54.503Z,16.65
2022-09-11T05:59:54.463Z,16.67
2022-09-11T06:00:54.458Z,16.67
2022-09-11T06:01:54.470Z,16.68
2022-09-11T06:02:54.377Z,16.73
2022-09-11T06:03:54.359Z,16.77
2022-09-11T06:04:54.353Z,16.78
2022-09-11T06:05:54.322Z,16.83
2022-09-11T06:06:54.303Z,16.88
2022-09-11T06:07:54.279Z,16.81
2022-09-11T06:08:54.289Z,16.89
2022-09-11T06:09:54.248Z,16.98
2022-09-11T06:10:54.221Z,16.99
2022-09-11T06:11:54.207Z,17.13
2022-09-11T06:12:54.183Z,17.18
2022-09-11T06:13:54.191Z,17.30
2022-09-11T06:14:54.149Z,17.30
2022-09-11T06:15:54.124Z,17.25
2022-09-11T06:16:54.158Z,17.41
2022-09-11T06:17:54.090Z,17.35
2022-09-11T06:18:54.083Z,17.41
2022-09-11T06:19:54.049Z,17.29
2022-09-11T06:20:54.047Z,17.29
2022-09-11T06:21:54.020Z,17.46
2022-09-11T06:22:54.004Z,17.53
2022-09-11T06:23:53.979Z,17.51
2022-09-11T06:24:53.976Z,17.64
2022-09-11T06:25:53.943Z,17.63
2022-09-11T06:26:53.914Z,17.74
2022-09-11T06:27:53.903Z,17.76
2022-09-11T06:28:53.895Z,17.82
2022-09-11T06:29:53.860Z,17.73
2022-09-11T06:30:53.879Z,17.79
2022-09-11T06:31:53.838Z,17.76
2022-09-11T06:32:53.814Z,17.88
2022-09-11T06:33:53.789Z,17.91
2022-09-11T06:34:53.782Z,17.85
2022-09-11T06:35:53.748Z,17.87
2022-09-11T06:36:53.766Z,17.92
2022-09-11T06:37:53.716Z,18.03
2022-09-11T06:38:53.698Z,18.02
2022-09-11T06:39:53.697Z,18.04
2022-09-11T06:40:53.664Z,18.12
2022-09-11T06:41:53.670Z,18.17
2022-09-11T06:42:53.640Z,18.27
2022-09-11T06:43:53.619Z,18.36
2022-09-11T06:44:53.593Z,18.37
2022-09-11T06:45:53.610Z,18.37
2022-09-11T06:46:53.571Z,18.36
2022-09-11T06:47:53.552Z,18.43
2022-09-11T06:48:53.519Z,18.52
2022-09-11T06:49:53.519Z,18.47
2022-09-11T06:50:53.506Z,18.52
2022-09-11T06:51:53.476Z,18.61
2022-09-11T06:52:53.474Z,18.57
2022-09-11T06:53:53.462Z,18.54
2022-09-11T06:54:53.420Z,18.54
2022-09-11T06:55:53.402Z,18.70
2022-09-11T06:56:53.386Z,18.72
2022-09-11T06:57:53.361Z,18.67
2022-09-11T06:58:53.348Z,18.65
2022-09-11T06:59:53.318Z,18.59
2022-09-11T07:00:53.319Z,18.70
2022-09-11T07:01:53.411Z,18.67
2022-09-11T07:02:53.266Z,18.73
2022-09-11T07:03:53.250Z,18.82
2022-09-11T07:04:53.257Z,18.94
2022-09-11T07:05:53.218Z,18.97
2022-09-11T07:06:53.199Z,18.97
2022-09-11T07:07:53.190Z,18.87
2022-09-11T07:08:53.210Z,18.94
2022-09-11T07:09:53.139Z,19.08
2022-09-11T07:10:53.140Z,19.02
2022-09-11T07:11:53.151Z,19.20
2022-09-11T07:12:53.105Z,19.21
2022-09-11T07:13:53.116Z,19.29
2022-09-11T07:14:53.074Z,19.17
2022-09-11T07:15:53.040Z,19.18
2022-09-11T07:16:53.098Z,19.10
2022-09-11T07:17:53.009Z,18.94
2022-09-11T07:18:52.998Z,18.97
2022-09-11T07:19:53.008Z,18.97
2022-09-11T07:20:53.026Z,19.08
2022-09-11T07:21:53.046Z,19.08
2022-09-11T07:22:52.970Z,19.01
2022-09-11T07:23:52.906Z,19.18
2022-09-11T07:24:52.958Z,19.25
2022-09-11T07:25:52.865Z,19.35
2022-09-11T07:26:52.898Z,19.31
2022-09-11T07:27:52.832Z,19.25
2022-09-11T07:28:52.821Z,19.32
2022-09-11T07:29:52.798Z,19.35
2022-09-11T07:30:52.845Z,19.20
2022-09-11T07:31:52.782Z,19.20
2022-09-11T07:32:52.767Z,19.31
2022-09-11T07:33:52.746Z,19.25
2022-09-11T07:34:52.723Z,19.20
2022-09-11T07:35:52.693Z,19.18
2022-09-11T07:36:52.680Z,19.21
2022-09-11T07:37:52.674Z,19.25
2022-09-11T07:38:52.667Z,19.39
2022-09-11T07:39:52.662Z,19.54
2022-09-11T07:40:52.611Z,19.55
2022-09-11T07:41:52.592Z,19.68
2022-09-11T07:42:52.590Z,19.68
2022-09-11T07:43:52.557Z,19.78
2022-09-11T07:44:52.589Z,19.90
2022-09-11T07:45:52.551Z,19.91
2022-09-11T07:46:52.505Z,19.90
2022-09-11T07:47:52.486Z,19.88
2022-09-11T07:48:52.468Z,19.90
2022-09-11T07:49:52.464Z,19.88
2022-09-11T07:50:52.466Z,19.73
2022-09-11T07:51:52.448Z,19.79
2022-09-11T07:54:52.577Z,19.60
2022-09-11T07:55:52.586Z,19.54
2022-09-11T07:57:52.491Z,19.61
2022-09-11T07:58:52.315Z,19.68
2022-09-11T07:59:52.375Z,19.65
2022-09-11T08:00:52.452Z,19.55
2022-09-11T08:01:52.616Z,19.53
2022-09-11T08:02:52.398Z,19.66
2022-09-11T08:03:52.260Z,19.68
2022-09-11T08:04:52.325Z,19.68
2022-09-11T08:05:52.190Z,19.80
2022-09-11T08:06:52.299Z,19.87
2022-09-11T08:07:52.227Z,20.03
2022-09-11T08:08:52.152Z,19.97
2022-09-11T08:10:10.188Z,19.97
2022-09-11T08:10:52.116Z,20.02
2022-09-11T08:11:52.087Z,19.97
2022-09-11T08:12:53.281Z,20.00
2022-09-11T08:13:52.067Z,20.03
2022-09-11T08:14:52.040Z,20.03
2022-09-11T08:15:52.070Z,19.91
2022-09-11T08:16:52.102Z,19.91
2022-09-11T08:17:51.994Z,19.84
2022-09-11T08:18:51.977Z,19.69
2022-09-11T08:19:51.959Z,19.73
2022-09-11T08:20:51.940Z,19.75
2022-09-11T08:21:51.933Z,19.66
2022-09-11T08:22:51.945Z,19.72
2022-09-11T08:23:51.892Z,19.61
2022-09-11T08:24:51.877Z,19.63
2022-09-11T08:25:51.866Z,19.55
2022-09-11T08:26:51.846Z,19.35
2022-09-11T08:27:51.821Z,19.38
2022-09-11T08:28:51.812Z,19.42
2022-09-11T08:29:51.791Z,19.48
2022-09-11T08:30:51.810Z,19.53
2022-09-11T08:31:51.767Z,19.61
2022-09-11T08:32:51.753Z,19.66
2022-09-11T08:33:51.826Z,19.76
2022-09-11T08:34:51.775Z,19.75
2022-09-11T08:35:51.695Z,19.83
2022-09-11T08:36:51.698Z,19.69
2022-09-11T08:37:54.839Z,19.65
2022-09-11T08:38:51.645Z,19.58
2022-09-11T08:39:51.688Z,19.65
2022-09-11T08:40:51.620Z,19.69
2022-09-11T08:41:51.598Z,19.70
2022-09-11T08:42:51.601Z,19.90
2022-09-11T08:43:51.571Z,20.03
2022-09-11T08:44:51.550Z,20.10
2022-09-11T08:45:51.600Z,20.35
2022-09-11T08:46:51.522Z,20.51
2022-09-11T08:47:51.504Z,20.58
2022-09-11T08:48:51.490Z,20.38
2022-09-11T08:49:51.479Z,20.25
2022-09-11T08:50:51.454Z,20.02
2022-09-11T08:51:51.446Z,19.93
2022-09-11T08:52:51.477Z,19.91
2022-09-11T08:53:51.416Z,20.02
2022-09-11T08:54:51.396Z,20.03
2022-09-11T08:55:51.383Z,20.18
2022-09-11T08:56:51.363Z,20.30
2022-09-11T08:57:51.353Z,20.13
2022-09-11T08:58:51.337Z,20.24
2022-09-11T08:59:51.316Z,20.28
2022-09-11T09:00:51.451Z,20.25
2022-09-11T09:01:51.372Z,20.30
2022-09-11T09:02:51.270Z,20.20
2022-09-11T09:03:51.257Z,20.18
2022-09-11T09:04:51.239Z,20.20
2022-09-11T09:05:51.250Z,20.24
2022-09-11T09:06:51.218Z,20.12
2022-09-11T09:07:51.199Z,20.02
2022-09-11T09:08:51.181Z,19.97
2022-09-11T09:09:51.173Z,20.15
2022-09-11T09:10:51.166Z,20.34
2022-09-11T09:11:51.145Z,20.35
2022-09-11T09:12:51.130Z,20.47
2022-09-11T09:13:51.130Z,20.34
2022-09-11T09:14:51.118Z,20.35
2022-09-11T09:15:51.118Z,20.56
2022-09-11T09:16:51.059Z,20.53
2022-09-11T09:17:51.050Z,20.66
2022-09-11T09:18:51.026Z,20.58
2022-09-11T09:19:51.019Z,20.51
2022-09-11T09:20:51.000Z,20.61
2022-09-11T09:21:50.986Z,20.58
2022-09-11T09:22:51.025Z,20.86
2022-09-11T09:23:50.986Z,21.13
2022-09-11T09:24:50.949Z,21.46
2022-09-11T09:25:50.932Z,22.27
2022-09-11T09:26:50.916Z,22.78
2022-09-11T09:27:50.958Z,23.62
2022-09-11T09:28:50.885Z,24.20
2022-09-11T09:29:50.874Z,24.10
2022-09-11T09:30:50.903Z,24.34
2022-09-11T09:31:50.871Z,24.07
2022-09-11T09:32:50.833Z,24.16
2022-09-11T09:33:50.821Z,24.27
2022-09-11T09:34:50.804Z,24.08
2022-09-11T09:35:50.786Z,23.90
2022-09-11T09:36:50.779Z,24.07
2022-09-11T09:37:50.767Z,24.26
2022-09-11T09:38:50.750Z,24.00
2022-09-11T09:39:50.776Z,24.37
2022-09-11T09:40:50.741Z,24.98
2022-09-11T09:41:50.707Z,24.83
2022-09-11T09:42:50.706Z,24.23
2022-09-11T09:43:50.680Z,23.86
2022-09-11T09:44:50.679Z,23.61
2022-09-11T09:45:50.709Z,23.49
2022-09-11T09:46:51.338Z,23.49
2022-09-11T09:47:50.642Z,23.15
2022-09-11T09:48:50.627Z,22.49
2022-09-11T09:49:50.610Z,22.13
2022-09-11T09:50:50.603Z,22.06
2022-09-11T09:51:50.580Z,21.92
2022-09-11T09:52:50.577Z,22.09
2022-09-11T09:53:50.617Z,22.19
2022-09-11T09:54:50.552Z,22.57
2022-09-11T09:55:50.564Z,23.46
2022-09-11T09:56:50.533Z,24.08
2022-09-11T09:57:50.526Z,24.31
2022-09-11T09:58:50.504Z,24.26
2022-09-11T09:59:50.496Z,23.71
2022-09-11T10:00:50.501Z,23.67
2022-09-11T10:01:50.570Z,23.35
2022-09-11T10:02:50.459Z,23.40
2022-09-11T10:03:50.457Z,23.55
2022-09-11T10:04:50.441Z,24.12
2022-09-11T10:05:50.418Z,24.04
2022-09-11T10:06:50.412Z,24.26
2022-09-11T10:07:50.405Z,24.73
2022-09-11T10:08:50.386Z,25.02
2022-09-11T10:09:50.374Z,25.22
2022-09-11T10:10:50.364Z,25.09
2022-09-11T10:11:50.362Z,24.83
2022-09-11T10:12:50.339Z,25.32
2022-09-11T10:13:50.357Z,25.20
2022-09-11T10:14:52.147Z,24.94
2022-09-11T10:15:50.478Z,24.41
2022-09-11T10:16:50.304Z,23.67
2022-09-11T10:17:50.288Z,23.27
2022-09-11T10:18:50.277Z,23.05
2022-09-11T10:19:50.266Z,22.74
2022-09-11T10:20:50.274Z,22.54
2022-09-11T10:21:50.253Z,22.41
2022-09-11T10:22:50.243Z,22.52
2022-09-11T10:23:50.218Z,22.54
2022-09-11T10:24:50.215Z,22.67
2022-09-11T10:25:50.198Z,22.86
2022-09-11T10:26:50.191Z,22.80
2022-09-11T10:27:50.204Z,22.77
2022-09-11T10:28:50.166Z,22.86
2022-09-11T10:29:50.152Z,22.75
2022-09-11T10:30:50.175Z,22.86
2022-09-11T10:31:50.148Z,23.32
2022-09-11T10:32:50.113Z,24.10
2022-09-11T10:33:50.100Z,24.12
2022-09-11T10:34:50.092Z,23.60
2022-09-11T10:35:50.085Z,23.20
2022-09-11T10:36:50.088Z,22.84
2022-09-11T10:37:50.096Z,22.60
2022-09-11T10:38:50.049Z,22.43
2022-09-11T10:39:50.199Z,22.38
2022-09-11T10:40:50.020Z,22.37
2022-09-11T10:41:50.020Z,22.39
2022-09-11T10:42:50.004Z,22.37
2022-09-11T10:43:49.986Z,22.37
2022-09-11T10:44:49.973Z,22.34
2022-09-11T10:45:50.003Z,22.43
2022-09-11T10:46:49.949Z,22.49
2022-09-11T10:47:49.939Z,22.57
2022-09-11T10:48:49.944Z,22.83
2022-09-11T10:49:49.923Z,23.23
2022-09-11T10:50:49.916Z,23.60
2022-09-11T10:51:49.893Z,23.72
2022-09-11T10:52:49.882Z,23.75
2022-09-11T10:53:49.872Z,23.62
2022-09-11T10:54:49.866Z,23.04
2022-09-11T10:55:49.844Z,23.04
2022-09-11T10:56:49.836Z,22.84
2022-09-11T10:57:49.828Z,22.80
2022-09-11T10:58:53.301Z,22.74
2022-09-11T10:59:49.799Z,22.75
2022-09-11T11:00:49.789Z,22.65
2022-09-11T11:01:49.888Z,22.54
2022-09-11T11:02:49.763Z,22.34
2022-09-11T11:03:49.757Z,22.32
2022-09-11T11:04:49.773Z,22.52
2022-09-11T11:05:49.736Z,22.68
2022-09-11T11:06:49.719Z,22.64
2022-09-11T11:07:49.708Z,22.67
2022-09-11T11:08:49.694Z,22.69
2022-09-11T11:09:49.688Z,22.74
2022-09-11T11:10:49.672Z,22.83
2022-09-11T11:11:49.652Z,22.86
2022-09-11T11:12:49.669Z,22.90
2022-09-11T11:13:49.629Z,22.92
2022-09-11T11:14:49.620Z,22.80
2022-09-11T11:15:49.640Z,22.49
2022-09-11T11:16:49.595Z,22.35
2022-09-11T11:17:49.594Z,22.17
2022-09-11T11:18:49.568Z,22.06
2022-09-11T11:19:49.554Z,22.16
2022-09-11T11:20:49.564Z,22.04
2022-09-11T11:21:49.534Z,22.12
2022-09-11T11:22:49.528Z,22.09
2022-09-11T11:23:49.512Z,21.99
2022-09-11T11:24:49.495Z,22.07
2022-09-11T11:25:49.489Z,22.12
2022-09-11T11:26:49.493Z,22.13
2022-09-11T11:27:49.459Z,22.12
2022-09-11T11:28:49.443Z,22.04
2022-09-11T11:29:49.441Z,21.99
2022-09-11T11:30:49.428Z,21.91
2022-09-11T11:31:49.410Z,21.81
2022-09-11T11:32:49.389Z,21.69
2022-09-11T11:33:49.401Z,21.61
2022-09-11T11:34:49.382Z,21.59
2022-09-11T11:35:49.363Z,21.45
2022-09-11T11:36:49.695Z,21.45
2022-09-11T11:37:49.375Z,21.53
2022-09-11T11:38:49.336Z,21.48
2022-09-11T11:39:49.407Z,21.60
2022-09-11T11:40:49.342Z,21.60
2022-09-11T11:41:49.331Z,21.69
2022-09-11T11:42:52.748Z,21.88
2022-09-11T11:43:49.295Z,21.97
2022-09-11T11:44:49.325Z,22.09
2022-09-11T11:46:49.222Z,22.02
2022-09-11T11:47:49.195Z,21.82
2022-09-11T11:48:49.201Z,21.82
2022-09-11T11:49:49.166Z,21.90
2022-09-11T11:50:49.174Z,21.91
2022-09-11T11:51:49.144Z,22.04
2022-09-11T11:52:49.153Z,22.20
2022-09-11T11:53:49.105Z,22.67
2022-09-11T11:54:49.103Z,23.01
2022-09-11T11:55:49.078Z,23.22
2022-09-11T11:56:49.067Z,23.50
2022-09-11T11:57:49.052Z,23.64
2022-09-11T11:58:49.040Z,23.68
2022-09-11T11:59:49.034Z,23.19
2022-09-11T12:00:53.401Z,22.99
2022-09-11T12:01:49.037Z,22.83
2022-09-11T12:02:48.999Z,22.67
2022-09-11T12:03:49.045Z,22.94
2022-09-11T12:04:48.985Z,23.31
2022-09-11T12:05:49.011Z,23.24
2022-09-11T12:06:48.975Z,23.19
2022-09-11T12:07:48.948Z,23.04
2022-09-11T12:08:48.935Z,23.01
2022-09-11T12:09:48.930Z,23.26
2022-09-11T12:10:48.937Z,23.07
2022-09-11T12:11:48.911Z,22.72
2022-09-11T12:12:48.904Z,22.46
2022-09-11T12:13:48.883Z,22.20
2022-09-11T12:14:48.884Z,21.99
2022-09-11T12:15:48.918Z,21.85
2022-09-11T12:16:48.857Z,21.88
2022-09-11T12:17:48.843Z,21.95
2022-09-11T12:18:48.828Z,21.91
2022-09-11T12:19:48.821Z,21.72
2022-09-11T12:20:48.802Z,21.57
2022-09-11T12:21:48.803Z,21.60
2022-09-11T12:22:48.799Z,21.51
2022-09-11T12:23:48.765Z,21.45
2022-09-11T12:24:48.807Z,21.44
2022-09-11T12:25:48.785Z,21.46
2022-09-11T12:26:48.729Z,21.44
2022-09-11T12:27:48.721Z,21.35
2022-09-11T12:28:48.715Z,21.32
2022-09-11T12:29:48.704Z,21.21
2022-09-11T12:30:48.704Z,21.21
2022-09-11T12:31:48.670Z,21.08
2022-09-11T12:32:48.657Z,21.16
2022-09-11T12:33:48.648Z,21.14
2022-09-11T12:34:48.622Z,21.17
2022-09-11T12:35:48.613Z,21.19
2022-09-11T12:36:48.593Z,21.19
2022-09-11T12:37:52.268Z,21.17
2022-09-11T12:38:48.570Z,21.14
2022-09-11T12:39:48.600Z,21.11
2022-09-11T12:40:48.570Z,21.08
2022-09-11T12:41:48.522Z,20.89
2022-09-11T12:42:48.541Z,20.86
2022-09-11T12:43:48.494Z,20.93
2022-09-11T12:44:48.493Z,20.93
2022-09-11T12:45:48.568Z,20.90
2022-09-11T12:46:48.448Z,20.96
2022-09-11T12:47:48.432Z,20.86
2022-09-11T12:49:00.465Z,20.90
2022-09-11T12:49:48.399Z,20.91
2022-09-11T12:50:48.386Z,20.99
2022-09-11T12:51:48.374Z,20.98
2022-09-11T12:52:48.355Z,20.95
2022-09-11T12:53:48.334Z,20.81
2022-09-11T12:54:48.326Z,20.93
2022-09-11T12:55:48.306Z,20.83